createdAt,value
2017-01-24T00:00:35.992Z,0.14
2017-01-24T00:01:44.640Z,0.14
2017-01-24T00:02:53.290Z,0.18
2017-01-24T00:04:01.946Z,0.15
2017-01-24T00:05:10.599Z,0.18
2017-01-24T00:06:19.247Z,0.13
2017-01-24T00:07:27.900Z,0.29
2017-01-24T00:08:36.551Z,0.21
2017-01-24T00:09:45.199Z,0.26
2017-01-24T00:10:53.857Z,0.26
2017-01-24T00:12:02.505Z,0.32
2017-01-24T00:13:11.155Z,0.14
2017-01-24T00:14:19.800Z,0.23
2017-01-24T00:15:28.449Z,0.32
2017-01-24T00:16:37.103Z,0.28
2017-01-24T00:17:45.752Z,0.47
2017-01-24T00:18:54.397Z,0.46
2017-01-24T00:20:03.046Z,0.46
2017-01-24T00:21:12.084Z,0.44
2017-01-24T00:22:21.114Z,0.46
2017-01-24T00:23:29.762Z,0.5
2017-01-24T00:24:38.413Z,0.53
2017-01-24T00:25:47.060Z,0.47
2017-01-24T00:26:55.712Z,0.46
2017-01-24T00:28:04.358Z,0.35
2017-01-24T00:29:13.013Z,0.29
2017-01-24T00:30:21.664Z,0.28
2017-01-24T00:31:30.314Z,0.36
2017-01-24T00:32:38.973Z,0.29
2017-01-24T00:33:47.623Z,0.26
2017-01-24T00:34:56.273Z,0.17
2017-01-24T00:36:04.918Z,0.24
2017-01-24T00:37:13.566Z,0.29
2017-01-24T00:38:22.213Z,0.33
2017-01-24T00:39:30.862Z,0.35
2017-01-24T00:40:39.516Z,0.26
2017-01-24T00:41:48.170Z,0.29
2017-01-24T00:42:56.819Z,0.13
2017-01-24T00:44:05.462Z,0.28
2017-01-24T00:45:14.112Z,0.26
2017-01-24T00:46:22.770Z,0.31
2017-01-24T00:47:31.429Z,0.26
2017-01-24T00:48:40.077Z,0.28
2017-01-24T00:49:48.726Z,0.2
2017-01-24T00:50:57.376Z,0.17
2017-01-24T00:52:06.022Z,0.17
2017-01-24T00:53:14.667Z,0.31
2017-01-24T00:54:23.317Z,0.28
2017-01-24T00:55:31.969Z,0.21
2017-01-24T00:56:40.645Z,0.26
2017-01-24T00:57:49.325Z,0.38
2017-01-24T00:58:57.975Z,0.29
2017-01-24T01:00:06.623Z,0.29
2017-01-24T01:01:15.275Z,0.33
2017-01-24T01:02:23.921Z,0.29
2017-01-24T01:03:32.588Z,0.17
2017-01-24T01:04:41.236Z,0.29
2017-01-24T01:05:49.882Z,0.15
2017-01-24T01:06:58.536Z,0.2
2017-01-24T01:08:07.189Z,0.14
2017-01-24T01:09:15.841Z,0.18
2017-01-24T01:10:24.505Z,0.21
2017-01-24T01:11:33.172Z,0.32
2017-01-24T01:12:41.830Z,0.32
2017-01-24T01:13:50.486Z,0.38
2017-01-24T01:14:59.147Z,0.31
2017-01-24T01:16:07.798Z,0.33
2017-01-24T01:17:16.445Z,0.29
2017-01-24T01:18:25.099Z,0.31
2017-01-24T01:19:34.131Z,0.31
2017-01-24T01:20:42.776Z,0.24
2017-01-24T01:21:51.422Z,0.29
2017-01-24T01:23:00.074Z,0.31
2017-01-24T01:24:08.723Z,0.29
2017-01-24T01:25:17.380Z,0.29
2017-01-24T01:26:26.028Z,0.29
2017-01-24T01:27:34.680Z,0.29
2017-01-24T01:28:43.330Z,0.29
2017-01-24T01:29:51.985Z,0.36
2017-01-24T01:31:00.632Z,0.33
2017-01-24T01:32:09.674Z,0.32
2017-01-24T01:33:18.320Z,0.33
2017-01-24T01:34:26.967Z,0.32
2017-01-24T01:35:35.616Z,0.31
2017-01-24T01:36:44.265Z,0.29
2017-01-24T01:37:52.919Z,0.32
2017-01-24T01:39:01.593Z,0.31
2017-01-24T01:40:10.243Z,0.28
2017-01-24T01:41:18.893Z,0.15
2017-01-24T01:42:27.540Z,0.17
2017-01-24T01:43:36.186Z,0.15
2017-01-24T01:44:44.832Z,0.18
2017-01-24T01:45:53.487Z,0.29
2017-01-24T01:47:02.134Z,0.29
2017-01-24T01:48:10.787Z,0.28
2017-01-24T01:49:19.437Z,0.35
2017-01-24T01:50:28.087Z,0.28
2017-01-24T01:51:36.741Z,0.29
2017-01-24T01:52:45.395Z,0.33
2017-01-24T01:53:54.047Z,0.28
2017-01-24T01:55:02.710Z,0.29
2017-01-24T01:56:11.357Z,0.26
2017-01-24T01:57:20.011Z,0.28
2017-01-24T01:58:28.662Z,0.31
2017-01-24T01:59:37.316Z,0.29
2017-01-24T02:00:45.967Z,0.35
2017-01-24T02:01:54.617Z,0.26
2017-01-24T02:03:03.289Z,0.39
2017-01-24T02:04:11.940Z,0.49
2017-01-24T02:05:20.589Z,0.5
2017-01-24T02:06:29.240Z,0.51
2017-01-24T02:07:37.895Z,0.35
2017-01-24T02:08:46.551Z,0.44
2017-01-24T02:09:55.201Z,0.49
2017-01-24T02:11:03.853Z,0.39
2017-01-24T02:12:12.499Z,0.29
2017-01-24T02:13:21.152Z,0.32
2017-01-24T02:14:29.802Z,0.33
2017-01-24T02:15:38.456Z,0.36
2017-01-24T02:16:47.111Z,0.41
2017-01-24T02:17:55.759Z,0.5
2017-01-24T02:19:04.415Z,0.55
2017-01-24T02:20:13.064Z,0.53
2017-01-24T02:21:21.715Z,0.57
2017-01-24T02:22:30.369Z,0.49
2017-01-24T02:23:39.048Z,0.49
2017-01-24T02:24:47.702Z,0.36
2017-01-24T02:25:56.356Z,0.55
2017-01-24T02:27:05.030Z,0.73
2017-01-24T02:28:13.676Z,0.73
2017-01-24T02:29:22.325Z,0.75
2017-01-24T02:30:30.976Z,0.6
2017-01-24T02:31:39.627Z,0.39
2017-01-24T02:32:48.274Z,0.33
2017-01-24T02:33:56.928Z,0.2
2017-01-24T02:35:05.592Z,0.29
2017-01-24T02:36:14.253Z,0.21
2017-01-24T02:37:22.901Z,0.17
2017-01-24T02:38:31.559Z,0.15
2017-01-24T02:39:40.220Z,0.2
2017-01-24T02:40:48.871Z,0.17
2017-01-24T02:41:57.525Z,0.23
2017-01-24T02:43:06.171Z,0.17
2017-01-24T02:44:14.823Z,0.14
2017-01-24T02:45:23.474Z,0.26
2017-01-24T02:46:32.121Z,0.18
2017-01-24T02:47:40.771Z,0.21
2017-01-24T02:48:49.422Z,0.1
2017-01-24T02:49:58.072Z,0.1
2017-01-24T02:51:06.718Z,0.07
2017-01-24T02:52:15.365Z,0.11
2017-01-24T02:53:24.017Z,0.13
2017-01-24T02:54:32.663Z,0.1
2017-01-24T02:55:41.312Z,0.23
2017-01-24T02:56:49.969Z,0.2
2017-01-24T02:57:58.623Z,0.15
2017-01-24T02:59:07.276Z,0.15
2017-01-24T03:00:15.927Z,0.17
2017-01-24T03:01:24.578Z,0.08
2017-01-24T03:02:33.228Z,0.08
2017-01-24T03:03:41.876Z,0.14
2017-01-24T03:04:50.519Z,0.11
2017-01-24T03:05:59.171Z,0.08
2017-01-24T03:07:07.827Z,0.14
2017-01-24T03:08:16.491Z,0.07
2017-01-24T03:09:25.134Z,0.08
2017-01-24T03:10:33.788Z,0.14
2017-01-24T03:11:42.442Z,0.13
2017-01-24T03:12:51.093Z,0.15
2017-01-24T03:13:59.748Z,0.28
2017-01-24T03:15:08.405Z,0.24
2017-01-24T03:16:17.050Z,0.14
2017-01-24T03:17:25.704Z,0.28
2017-01-24T03:18:34.360Z,0.2
2017-01-24T03:19:43.008Z,0.21
2017-01-24T03:20:51.660Z,0.15
2017-01-24T03:22:00.317Z,0.17
2017-01-24T03:23:08.965Z,0.17
2017-01-24T03:24:17.611Z,0.11
2017-01-24T03:25:26.259Z,0.21
2017-01-24T03:26:34.911Z,0.18
2017-01-24T03:27:43.562Z,0.15
2017-01-24T03:28:52.210Z,0.18
2017-01-24T03:30:00.860Z,0.15
2017-01-24T03:31:09.515Z,0.11
2017-01-24T03:32:18.167Z,0.15
2017-01-24T03:33:26.822Z,0.18
2017-01-24T03:34:35.473Z,0.17
2017-01-24T03:35:44.127Z,0.15
2017-01-24T03:36:52.797Z,0.21
2017-01-24T03:38:01.445Z,0.2
2017-01-24T03:39:10.096Z,0.23
2017-01-24T03:40:18.746Z,0.18
2017-01-24T03:41:27.395Z,0.21
2017-01-24T03:42:36.047Z,0.17
2017-01-24T03:43:44.698Z,0.13
2017-01-24T03:44:53.361Z,0.23
2017-01-24T03:46:02.009Z,0.11
2017-01-24T03:47:10.662Z,0.17
2017-01-24T03:48:19.313Z,0.14
2017-01-24T03:49:27.970Z,0.14
2017-01-24T03:50:36.620Z,0.18
2017-01-24T03:51:45.274Z,0.13
2017-01-24T03:52:53.929Z,0.21
2017-01-24T03:54:02.580Z,0.24
2017-01-24T03:55:11.237Z,0.21
2017-01-24T03:56:19.889Z,0.17
2017-01-24T03:57:28.541Z,0.15
2017-01-24T03:58:37.197Z,0.2
2017-01-24T03:59:45.851Z,0.13
2017-01-24T04:00:54.500Z,0.11
2017-01-24T04:02:03.154Z,0.1
2017-01-24T04:03:11.828Z,0.14
2017-01-24T04:04:20.474Z,0.11
2017-01-24T04:05:29.128Z,0.17
2017-01-24T04:06:37.784Z,0.14
2017-01-24T04:07:46.446Z,0.13
2017-01-24T04:08:55.094Z,0.26
2017-01-24T04:10:03.746Z,0.21
2017-01-24T04:11:12.393Z,0.18
2017-01-24T04:12:21.045Z,0.21
2017-01-24T04:13:29.692Z,0.17
2017-01-24T04:14:38.362Z,0.14
2017-01-24T04:15:47.017Z,0.17
2017-01-24T04:16:55.668Z,0.2
2017-01-24T04:18:04.316Z,0.18
2017-01-24T04:19:12.964Z,0.23
2017-01-24T04:20:21.615Z,0.15
2017-01-24T04:21:30.268Z,0.08
2017-01-24T04:22:38.919Z,0.2
2017-01-24T04:23:47.572Z,0.26
2017-01-24T04:24:56.223Z,0.13
2017-01-24T04:26:04.879Z,0.29
2017-01-24T04:27:13.524Z,0.14
2017-01-24T04:28:22.174Z,0.28
2017-01-24T04:29:30.825Z,0.18
2017-01-24T04:30:39.484Z,0.2
2017-01-24T04:31:48.134Z,0.17
2017-01-24T04:32:56.782Z,0.28
2017-01-24T04:34:05.458Z,0.17
2017-01-24T04:35:14.109Z,0.17
2017-01-24T04:36:22.755Z,0.14
2017-01-24T04:37:31.409Z,0.17
2017-01-24T04:38:40.062Z,0.15
2017-01-24T04:39:48.718Z,0.26
2017-01-24T04:40:57.388Z,0.17
2017-01-24T04:42:06.039Z,0.14
2017-01-24T04:43:14.692Z,0.18
2017-01-24T04:44:23.337Z,0.15
2017-01-24T04:45:31.989Z,0.1
2017-01-24T04:46:40.642Z,0.14
2017-01-24T04:47:49.289Z,0.08
2017-01-24T04:48:57.934Z,0.13
2017-01-24T04:50:06.584Z,0.15
2017-01-24T04:51:15.234Z,0.23
2017-01-24T04:52:23.879Z,0.31
2017-01-24T04:53:32.532Z,0.17
2017-01-24T04:54:41.179Z,0.28
2017-01-24T04:55:49.834Z,0.13
2017-01-24T04:56:58.492Z,0.17
2017-01-24T04:58:07.139Z,0.26
2017-01-24T04:59:15.788Z,0.28
2017-01-24T05:00:24.439Z,0.26
2017-01-24T05:01:33.097Z,0.24
2017-01-24T05:02:41.746Z,0.32
2017-01-24T05:03:50.396Z,0.24
2017-01-24T05:04:59.046Z,0.23
2017-01-24T05:06:07.693Z,0.29
2017-01-24T05:07:16.341Z,0.33
2017-01-24T05:08:24.995Z,0.33
2017-01-24T05:09:33.643Z,0.29
2017-01-24T05:10:42.305Z,0.29
2017-01-24T05:11:50.951Z,0.32
2017-01-24T05:12:59.603Z,0.33
2017-01-24T05:14:08.258Z,0.24
2017-01-24T05:15:16.905Z,0.32
2017-01-24T05:16:25.558Z,0.36
2017-01-24T05:17:34.208Z,0.26
2017-01-24T05:18:42.857Z,0.31
2017-01-24T05:19:51.509Z,0.42
2017-01-24T05:21:00.160Z,0.49
2017-01-24T05:22:08.809Z,0.42
2017-01-24T05:23:17.460Z,0.32
2017-01-24T05:24:26.109Z,0.38
2017-01-24T05:25:34.762Z,0.46
2017-01-24T05:26:43.412Z,0.61
2017-01-24T05:27:52.064Z,0.53
2017-01-24T05:29:00.724Z,0.44
2017-01-24T05:30:09.386Z,0.36
2017-01-24T05:31:18.037Z,0.36
2017-01-24T05:32:26.684Z,0.31
2017-01-24T05:33:35.337Z,0.32
2017-01-24T05:34:43.988Z,0.32
2017-01-24T05:35:52.646Z,0.36
2017-01-24T05:37:01.296Z,0.33
2017-01-24T05:38:09.949Z,0.33
2017-01-24T05:39:18.596Z,0.28
2017-01-24T05:40:27.248Z,0.26
2017-01-24T05:41:35.899Z,0.23
2017-01-24T05:42:44.552Z,0.32
2017-01-24T05:43:53.208Z,0.23
2017-01-24T05:45:01.854Z,0.29
2017-01-24T05:46:10.506Z,0.28
2017-01-24T05:47:19.157Z,0.28
2017-01-24T05:48:27.808Z,0.29
2017-01-24T05:49:36.463Z,0.35
2017-01-24T05:50:45.117Z,0.31
2017-01-24T05:51:53.777Z,0.33
2017-01-24T05:53:02.430Z,0.35
2017-01-24T05:54:11.086Z,0.35
2017-01-24T05:55:19.735Z,0.29
2017-01-24T05:56:28.385Z,0.32
2017-01-24T05:57:37.034Z,0.29
2017-01-24T05:58:45.688Z,0.29
2017-01-24T05:59:54.339Z,0.41
2017-01-24T06:01:02.999Z,0.26
2017-01-24T06:02:11.654Z,0.35
2017-01-24T06:03:20.311Z,0.35
2017-01-24T06:04:28.973Z,0.36
2017-01-24T06:05:37.637Z,0.29
2017-01-24T06:06:46.283Z,0.32
2017-01-24T06:07:54.933Z,0.35
2017-01-24T06:09:03.584Z,0.33
2017-01-24T06:10:12.229Z,0.29
2017-01-24T06:11:20.883Z,0.28
2017-01-24T06:12:29.532Z,0.24
2017-01-24T06:13:38.189Z,0.24
2017-01-24T06:14:46.835Z,0.24
2017-01-24T06:15:55.490Z,0.29
2017-01-24T06:17:04.150Z,0.29
2017-01-24T06:18:12.803Z,0.24
2017-01-24T06:19:21.482Z,0.21
2017-01-24T06:20:30.133Z,0.24
2017-01-24T06:21:38.788Z,0.26
2017-01-24T06:22:47.439Z,0.33
2017-01-24T06:23:56.092Z,0.31
2017-01-24T06:25:04.751Z,0.35
2017-01-24T06:26:13.405Z,0.26
2017-01-24T06:27:22.056Z,0.28
2017-01-24T06:28:30.705Z,0.32
2017-01-24T06:29:39.361Z,0.28
2017-01-24T06:30:48.015Z,0.32
2017-01-24T06:31:56.664Z,0.33
2017-01-24T06:33:05.323Z,0.36
2017-01-24T06:34:13.977Z,0.33
2017-01-24T06:35:22.623Z,0.29
2017-01-24T06:36:31.277Z,0.29
2017-01-24T06:37:39.932Z,0.21
2017-01-24T06:38:48.608Z,0.26
2017-01-24T06:39:57.258Z,0.32
2017-01-24T06:41:05.912Z,0.29
2017-01-24T06:42:14.563Z,0.28
2017-01-24T06:43:23.223Z,0.26
2017-01-24T06:44:31.872Z,0.26
2017-01-24T06:45:40.526Z,0.2
2017-01-24T06:46:49.184Z,0.29
2017-01-24T06:47:57.836Z,0.29
2017-01-24T06:49:06.539Z,0.17
2017-01-24T06:50:15.193Z,0.28
2017-01-24T06:51:23.842Z,0.28
2017-01-24T06:52:32.483Z,0.28
2017-01-24T06:53:41.133Z,0.31
2017-01-24T06:54:49.784Z,0.36
2017-01-24T06:55:58.440Z,0.31
2017-01-24T06:57:07.089Z,0.28
2017-01-24T06:58:15.742Z,0.29
2017-01-24T06:59:24.393Z,0.35
2017-01-24T07:00:33.044Z,0.31
2017-01-24T07:01:41.691Z,0.39
2017-01-24T07:02:50.344Z,0.47
2017-01-24T07:03:59.004Z,0.39
2017-01-24T07:05:07.653Z,0.36
2017-01-24T07:06:16.309Z,0.36
2017-01-24T07:07:24.965Z,0.33
2017-01-24T07:08:33.617Z,0.28
2017-01-24T07:09:42.674Z,0.33
2017-01-24T07:10:51.331Z,0.28
2017-01-24T07:11:59.981Z,0.47
2017-01-24T07:13:08.632Z,0.47
2017-01-24T07:14:17.293Z,0.47
2017-01-24T07:15:25.957Z,0.46
2017-01-24T07:16:34.607Z,0.35
2017-01-24T07:17:43.259Z,0.36
2017-01-24T07:18:51.913Z,0.39
2017-01-24T07:20:00.565Z,0.36
2017-01-24T07:21:09.221Z,0.46
2017-01-24T07:22:17.877Z,0.46
2017-01-24T07:23:26.527Z,0.44
2017-01-24T07:24:35.190Z,0.39
2017-01-24T07:25:43.839Z,0.42
2017-01-24T07:26:52.520Z,0.41
2017-01-24T07:28:01.169Z,0.46
2017-01-24T07:29:09.824Z,0.41
2017-01-24T07:30:18.479Z,0.39
2017-01-24T07:31:27.133Z,0.44
2017-01-24T07:32:35.792Z,0.49
2017-01-24T07:33:44.445Z,0.49
2017-01-24T07:34:53.093Z,0.57
2017-01-24T07:36:01.751Z,0.58
2017-01-24T07:37:10.397Z,0.57
2017-01-24T07:38:19.052Z,0.58
2017-01-24T07:39:27.710Z,0.5
2017-01-24T07:40:36.368Z,0.51
2017-01-24T07:41:45.022Z,0.51
2017-01-24T07:42:53.668Z,0.46
2017-01-24T07:44:02.326Z,0.46
2017-01-24T07:45:10.986Z,0.49
2017-01-24T07:46:19.648Z,0.44
2017-01-24T07:47:28.299Z,0.41
2017-01-24T07:48:36.949Z,0.5
2017-01-24T07:49:45.602Z,0.47
2017-01-24T07:50:54.261Z,0.49
2017-01-24T07:52:02.910Z,0.47
2017-01-24T07:53:11.564Z,0.53
2017-01-24T07:54:20.215Z,0.55
2017-01-24T07:55:28.867Z,0.57
2017-01-24T07:56:37.522Z,0.57
2017-01-24T07:57:46.173Z,0.5
2017-01-24T07:58:54.825Z,0.62
2017-01-24T08:00:03.483Z,0.57
2017-01-24T08:01:12.138Z,0.55
2017-01-24T08:02:20.784Z,0.57
2017-01-24T08:03:29.434Z,0.65
2017-01-24T08:04:38.087Z,0.6
2017-01-24T08:05:46.737Z,0.61
2017-01-24T08:06:55.394Z,0.65
2017-01-24T08:08:04.053Z,0.55
2017-01-24T08:09:12.704Z,0.61
2017-01-24T08:10:21.357Z,0.72
2017-01-24T08:11:30.012Z,0.65
2017-01-24T08:12:38.665Z,0.57
2017-01-24T08:13:47.311Z,0.61
2017-01-24T08:14:55.961Z,0.65
2017-01-24T08:16:04.616Z,0.62
2017-01-24T08:17:13.272Z,0.65
2017-01-24T08:18:21.917Z,0.65
2017-01-24T08:19:30.564Z,0.69
2017-01-24T08:20:39.222Z,0.73
2017-01-24T08:21:47.869Z,0.68
2017-01-24T08:22:56.522Z,0.68
2017-01-24T08:24:05.172Z,0.76
2017-01-24T08:25:13.829Z,0.76
2017-01-24T08:26:22.500Z,0.79
2017-01-24T08:27:31.146Z,0.79
2017-01-24T08:28:39.792Z,0.84
2017-01-24T08:29:48.447Z,0.7
2017-01-24T08:30:57.096Z,0.72
2017-01-24T08:32:05.747Z,0.75
2017-01-24T08:33:14.399Z,0.75
2017-01-24T08:34:23.052Z,0.72
2017-01-24T08:35:31.702Z,0.78
2017-01-24T08:36:40.357Z,0.78
2017-01-24T08:37:49.009Z,0.78
2017-01-24T08:38:57.664Z,0.72
2017-01-24T08:40:06.319Z,0.75
2017-01-24T08:41:14.975Z,0.79
2017-01-24T08:42:23.624Z,0.8
2017-01-24T08:43:32.280Z,0.7
2017-01-24T08:44:40.939Z,0.79
2017-01-24T08:45:49.589Z,0.79
2017-01-24T08:46:58.243Z,0.86
2017-01-24T08:48:06.894Z,0.75
2017-01-24T08:49:15.551Z,0.73
2017-01-24T08:50:24.215Z,0.78
2017-01-24T08:51:32.868Z,0.84
2017-01-24T08:52:41.522Z,0.76
2017-01-24T08:53:50.168Z,0.72
2017-01-24T08:54:58.822Z,0.86
2017-01-24T08:56:07.472Z,0.79
2017-01-24T08:57:16.126Z,0.9
2017-01-24T08:58:24.777Z,0.8
2017-01-24T08:59:33.457Z,0.8
2017-01-24T09:00:42.113Z,0.75
2017-01-24T09:01:50.764Z,0.78
2017-01-24T09:02:59.411Z,0.86
2017-01-24T09:04:08.065Z,0.76
2017-01-24T09:05:16.731Z,0.75
2017-01-24T09:06:25.382Z,0.83
2017-01-24T09:07:34.044Z,0.87
2017-01-24T09:08:42.698Z,0.9
2017-01-24T09:09:51.346Z,0.88
2017-01-24T09:10:59.997Z,0.86
2017-01-24T09:12:08.658Z,0.83
2017-01-24T09:13:17.315Z,0.83
2017-01-24T09:14:25.996Z,0.78
2017-01-24T09:15:34.677Z,0.84
2017-01-24T09:16:43.332Z,0.88
2017-01-24T09:17:52.063Z,0.73
2017-01-24T09:19:00.716Z,0.91
2017-01-24T09:20:09.371Z,0.93
2017-01-24T09:21:18.029Z,0.78
2017-01-24T09:22:26.685Z,0.86
2017-01-24T09:23:35.336Z,0.8
2017-01-24T09:24:43.992Z,0.88
2017-01-24T09:25:52.652Z,0.86
2017-01-24T09:27:01.309Z,0.88
2017-01-24T09:28:09.961Z,0.79
2017-01-24T09:29:18.614Z,0.88
2017-01-24T09:30:27.262Z,0.86
2017-01-24T09:31:35.915Z,0.88
2017-01-24T09:32:44.569Z,0.9
2017-01-24T09:33:53.223Z,0.7
2017-01-24T09:35:01.902Z,0.9
2017-01-24T09:36:10.556Z,0.76
2017-01-24T09:37:19.205Z,0.84
2017-01-24T09:38:27.860Z,0.88
2017-01-24T09:39:36.522Z,0.86
2017-01-24T09:40:45.170Z,0.96
2017-01-24T09:41:53.818Z,1.02
2017-01-24T09:43:02.466Z,1.04
2017-01-24T09:44:11.119Z,1.16
2017-01-24T09:45:19.773Z,1.22
2017-01-24T09:46:28.422Z,1.22
2017-01-24T09:47:37.084Z,1.18
2017-01-24T09:48:45.731Z,1.12
2017-01-24T09:49:54.376Z,1.14
2017-01-24T09:51:03.030Z,1.08
2017-01-24T09:52:11.674Z,1.27
2017-01-24T09:53:20.320Z,1.26
2017-01-24T09:54:28.968Z,1.23
2017-01-24T09:55:37.613Z,1.2
2017-01-24T09:56:46.259Z,1.37
2017-01-24T09:57:54.906Z,1.22
2017-01-24T09:59:03.560Z,1.14
2017-01-24T10:00:12.209Z,1.16
2017-01-24T10:01:20.866Z,1.09
2017-01-24T10:02:29.513Z,1.11
2017-01-24T10:03:38.161Z,1.09
2017-01-24T10:04:46.814Z,1.11
2017-01-24T10:05:55.463Z,1.16
2017-01-24T10:07:04.115Z,1.24
2017-01-24T10:08:12.766Z,1.29
2017-01-24T10:09:21.412Z,1.24
2017-01-24T10:10:30.061Z,1.33
2017-01-24T10:11:38.714Z,1.23
2017-01-24T10:12:47.361Z,1.3
2017-01-24T10:13:56.010Z,1.32
2017-01-24T10:15:04.665Z,1.36
2017-01-24T10:16:13.312Z,1.36
2017-01-24T10:17:21.969Z,1.36
2017-01-24T10:18:30.626Z,1.42
2017-01-24T10:19:39.287Z,1.36
2017-01-24T10:20:47.941Z,1.45
2017-01-24T10:21:56.972Z,1.54
2017-01-24T10:23:05.621Z,1.62
2017-01-24T10:24:14.277Z,1.69
2017-01-24T10:25:22.929Z,1.62
2017-01-24T10:26:31.580Z,1.65
2017-01-24T10:27:40.231Z,1.72
2017-01-24T10:28:48.876Z,1.8
2017-01-24T10:29:57.531Z,1.83
2017-01-24T10:31:06.190Z,1.84
2017-01-24T10:32:14.840Z,1.99
2017-01-24T10:33:23.498Z,1.99
2017-01-24T10:34:32.531Z,2.06
2017-01-24T10:35:41.188Z,2.05
2017-01-24T10:36:49.839Z,2.09
2017-01-24T10:37:58.501Z,2.14
2017-01-24T10:39:07.155Z,2.17
2017-01-24T10:40:15.803Z,2.21
2017-01-24T10:41:24.457Z,2.2
2017-01-24T10:42:33.109Z,2.2
2017-01-24T10:43:41.793Z,2.14
2017-01-24T10:44:50.449Z,2.18
2017-01-24T10:45:59.100Z,2.34
2017-01-24T10:47:07.754Z,2.27
2017-01-24T10:48:16.406Z,2.28
2017-01-24T10:49:25.057Z,2.38
2017-01-24T10:50:33.718Z,2.36
2017-01-24T10:51:42.370Z,2.41
2017-01-24T10:52:51.021Z,2.36
2017-01-24T10:53:59.673Z,2.41
2017-01-24T10:55:08.328Z,2.49
2017-01-24T10:56:16.987Z,2.54
2017-01-24T10:57:25.638Z,2.49
2017-01-24T10:58:34.301Z,2.48
2017-01-24T10:59:42.953Z,2.54
2017-01-24T11:00:51.606Z,2.48
2017-01-24T11:02:00.279Z,2.54
2017-01-24T11:03:08.933Z,2.61
2017-01-24T11:04:17.588Z,2.63
2017-01-24T11:05:26.270Z,2.75
2017-01-24T11:06:34.926Z,2.67
2017-01-24T11:07:43.576Z,2.61
2017-01-24T11:08:52.226Z,2.63
2017-01-24T11:10:00.886Z,2.66
2017-01-24T11:11:09.541Z,2.75
2017-01-24T11:12:18.198Z,2.79
2017-01-24T11:13:26.849Z,2.77
2017-01-24T11:14:35.500Z,2.78
2017-01-24T11:15:44.166Z,2.85
2017-01-24T11:16:52.816Z,2.87
2017-01-24T11:18:01.469Z,2.85
2017-01-24T11:19:10.129Z,2.82
2017-01-24T11:20:18.788Z,2.84
2017-01-24T11:21:27.444Z,2.87
2017-01-24T11:22:36.102Z,2.82
2017-01-24T11:23:44.754Z,2.89
2017-01-24T11:24:53.408Z,2.97
2017-01-24T11:26:02.068Z,2.84
2017-01-24T11:27:10.724Z,2.82
2017-01-24T11:28:19.374Z,2.96
2017-01-24T11:29:28.023Z,2.84
2017-01-24T11:30:36.679Z,2.85
2017-01-24T11:31:45.334Z,2.82
2017-01-24T11:32:53.990Z,2.89
2017-01-24T11:34:02.645Z,2.85
2017-01-24T11:35:11.302Z,2.93
2017-01-24T11:36:19.953Z,2.87
2017-01-24T11:37:28.611Z,2.84
2017-01-24T11:38:37.291Z,2.82
2017-01-24T11:39:45.944Z,2.72
2017-01-24T11:40:54.602Z,2.64
2017-01-24T11:42:03.263Z,2.6
2017-01-24T11:43:11.925Z,2.56
2017-01-24T11:44:20.577Z,2.54
2017-01-24T11:45:29.238Z,2.52
2017-01-24T11:46:37.895Z,2.63
2017-01-24T11:47:46.549Z,2.74
2017-01-24T11:48:55.206Z,2.78
2017-01-24T11:50:03.863Z,2.78
2017-01-24T11:51:12.516Z,2.82
2017-01-24T11:52:21.169Z,2.72
2017-01-24T11:53:29.849Z,2.75
2017-01-24T11:54:38.500Z,2.84
2017-01-24T11:55:47.158Z,2.78
2017-01-24T11:56:55.820Z,2.79
2017-01-24T11:58:04.472Z,2.71
2017-01-24T11:59:13.130Z,2.75
2017-01-24T12:00:21.798Z,2.75
2017-01-24T12:01:30.458Z,2.75
2017-01-24T12:02:39.121Z,2.72
2017-01-24T12:03:47.778Z,2.81
2017-01-24T12:04:56.437Z,2.81
2017-01-24T12:06:05.092Z,2.84
2017-01-24T12:07:13.953Z,2.84
2017-01-24T12:08:22.610Z,2.82
2017-01-24T12:09:31.652Z,2.93
2017-01-24T12:10:40.309Z,2.99
2017-01-24T12:11:48.966Z,2.96
2017-01-24T12:12:57.621Z,2.93
2017-01-24T12:14:06.282Z,2.97
2017-01-24T12:15:14.951Z,2.99
2017-01-24T12:16:23.625Z,3.05
2017-01-24T12:17:32.292Z,3
2017-01-24T12:18:40.951Z,3.08
2017-01-24T12:19:49.607Z,3.06
2017-01-24T12:20:58.262Z,3.05
2017-01-24T12:22:06.925Z,3.1
2017-01-24T12:23:15.582Z,3.1
2017-01-24T12:24:24.241Z,3.1
2017-01-24T12:25:32.897Z,3.11
2017-01-24T12:26:41.550Z,3.18
2017-01-24T12:27:50.202Z,3.23
2017-01-24T12:28:58.857Z,3.29
2017-01-24T12:30:07.511Z,3.17
2017-01-24T12:31:16.161Z,3.2
2017-01-24T12:32:24.821Z,3.29
2017-01-24T12:33:33.478Z,3.26
2017-01-24T12:34:42.129Z,3.28
2017-01-24T12:35:50.781Z,3.26
2017-01-24T12:36:59.437Z,3.4
2017-01-24T12:38:08.095Z,3.36
2017-01-24T12:39:16.745Z,3.4
2017-01-24T12:40:25.405Z,3.4
2017-01-24T12:41:34.061Z,3.4
2017-01-24T12:42:42.711Z,3.39
2017-01-24T12:43:51.365Z,3.31
2017-01-24T12:45:00.041Z,3.15
2017-01-24T12:46:08.701Z,3.14
2017-01-24T12:47:17.361Z,3.11
2017-01-24T12:48:26.022Z,3.14
2017-01-24T12:49:34.675Z,2.97
2017-01-24T12:50:43.334Z,3.02
2017-01-24T12:51:51.987Z,2.96
2017-01-24T12:53:00.637Z,2.93
2017-01-24T12:54:09.290Z,3.02
2017-01-24T12:55:17.949Z,2.99
2017-01-24T12:56:26.598Z,2.87
2017-01-24T12:57:35.251Z,2.92
2017-01-24T12:58:43.927Z,2.79
2017-01-24T12:59:52.580Z,2.89
2017-01-24T13:01:01.234Z,2.81
2017-01-24T13:02:09.888Z,2.85
2017-01-24T13:03:18.541Z,2.79
2017-01-24T13:04:27.210Z,2.89
2017-01-24T13:05:35.863Z,2.84
2017-01-24T13:06:44.565Z,2.95
2017-01-24T13:07:53.226Z,2.99
2017-01-24T13:09:01.924Z,2.95
2017-01-24T13:10:10.570Z,3
2017-01-24T13:11:19.224Z,3.11
2017-01-24T13:12:27.879Z,3.06
2017-01-24T13:13:36.530Z,3.15
2017-01-24T13:14:45.190Z,3.15
2017-01-24T13:15:53.843Z,3.29
2017-01-24T13:17:02.500Z,3.32
2017-01-24T13:18:11.163Z,3.32
2017-01-24T13:19:19.827Z,3.29
2017-01-24T13:20:28.483Z,3.39
2017-01-24T13:21:37.138Z,3.4
2017-01-24T13:22:45.796Z,3.4
2017-01-24T13:23:54.452Z,3.47
2017-01-24T13:25:03.105Z,3.42
2017-01-24T13:26:11.763Z,3.57
2017-01-24T13:27:20.419Z,3.62
2017-01-24T13:28:29.074Z,3.72
2017-01-24T13:29:37.732Z,3.73
2017-01-24T13:30:46.386Z,3.72
2017-01-24T13:31:55.042Z,3.61
2017-01-24T13:33:03.694Z,3.54
2017-01-24T13:34:12.365Z,3.54
2017-01-24T13:35:21.023Z,3.32
2017-01-24T13:36:29.675Z,3.21
2017-01-24T13:37:38.334Z,3.15
2017-01-24T13:38:46.987Z,3.24
2017-01-24T13:39:55.642Z,3.23
2017-01-24T13:41:04.304Z,3.24
2017-01-24T13:42:12.958Z,3.28
2017-01-24T13:43:21.611Z,3.28
2017-01-24T13:44:30.264Z,3.39
2017-01-24T13:45:38.915Z,3.42
2017-01-24T13:46:47.601Z,3.43
2017-01-24T13:47:56.255Z,3.57
2017-01-24T13:49:04.908Z,3.6
2017-01-24T13:50:13.552Z,3.42
2017-01-24T13:51:22.206Z,3.36
2017-01-24T13:52:30.870Z,3.47
2017-01-24T13:53:39.530Z,3.36
2017-01-24T13:54:48.188Z,3.43
2017-01-24T13:55:56.839Z,3.4
2017-01-24T13:57:05.504Z,3.42
2017-01-24T13:58:14.167Z,3.4
2017-01-24T13:59:22.833Z,3.45
2017-01-24T14:00:31.487Z,3.4
2017-01-24T14:01:40.136Z,3.35
2017-01-24T14:02:48.793Z,3.39
2017-01-24T14:03:57.448Z,3.31
2017-01-24T14:05:06.103Z,3.33
2017-01-24T14:06:14.754Z,3.35
2017-01-24T14:07:23.408Z,3.42
2017-01-24T14:08:32.062Z,3.35
2017-01-24T14:09:40.714Z,3.29
2017-01-24T14:10:49.366Z,3.28
2017-01-24T14:11:58.030Z,3.18
2017-01-24T14:13:06.689Z,3.08
2017-01-24T14:14:15.357Z,3.03
2017-01-24T14:15:24.008Z,3.14
2017-01-24T14:16:32.666Z,3.11
2017-01-24T14:17:41.323Z,3.15
2017-01-24T14:18:49.987Z,3.11
2017-01-24T14:19:58.641Z,3.15
2017-01-24T14:21:07.296Z,3.28
2017-01-24T14:22:15.950Z,3.21
2017-01-24T14:23:24.603Z,3.28
2017-01-24T14:24:33.258Z,3.23
2017-01-24T14:25:41.914Z,3.28
2017-01-24T14:26:50.563Z,3.33
2017-01-24T14:27:59.218Z,3.2
2017-01-24T14:29:07.877Z,3.28
2017-01-24T14:30:16.533Z,3.18
2017-01-24T14:31:25.189Z,3.15
2017-01-24T14:32:33.836Z,3.1
2017-01-24T14:33:42.491Z,3.1
2017-01-24T14:34:51.139Z,3.13
2017-01-24T14:35:59.797Z,3.05
2017-01-24T14:37:08.454Z,2.93
2017-01-24T14:38:17.111Z,2.96
2017-01-24T14:39:25.763Z,3.03
2017-01-24T14:40:34.413Z,2.99
2017-01-24T14:41:43.069Z,2.96
2017-01-24T14:42:51.727Z,2.97
2017-01-24T14:44:00.380Z,2.87
2017-01-24T14:45:09.037Z,2.85
2017-01-24T14:46:17.694Z,2.74
2017-01-24T14:47:26.381Z,2.74
2017-01-24T14:48:35.040Z,2.72
2017-01-24T14:49:43.696Z,2.72
2017-01-24T14:50:52.350Z,2.74
2017-01-24T14:52:01.012Z,2.71
2017-01-24T14:53:10.043Z,2.66
2017-01-24T14:54:18.696Z,2.64
2017-01-24T14:55:27.348Z,2.57
2017-01-24T14:56:36.009Z,2.57
2017-01-24T14:57:44.665Z,2.53
2017-01-24T14:58:53.353Z,2.34
2017-01-24T15:00:02.006Z,2.34
2017-01-24T15:01:10.664Z,2.25
2017-01-24T15:02:19.317Z,2.38
2017-01-24T15:03:27.969Z,2.42
2017-01-24T15:04:36.617Z,2.38
2017-01-24T15:05:45.279Z,2.3
2017-01-24T15:06:53.933Z,2.34
2017-01-24T15:08:02.601Z,2.39
2017-01-24T15:09:11.253Z,2.45
2017-01-24T15:10:19.910Z,2.48
2017-01-24T15:11:28.564Z,2.34
2017-01-24T15:12:37.216Z,2.45
2017-01-24T15:13:45.870Z,2.35
2017-01-24T15:14:54.573Z,2.43
2017-01-24T15:16:03.241Z,2.36